Time;durP1;ratioP1;P1;durP2;ratioP2;P2;SDS_P1;SDS_P2;PMS_P1;PMS_P2;Temp;Humidity;BMP_temperature;BMP_pressure;BME280_temperature;BME280_humidity;BME280_pressure;Samples;Min_cycle;Max_cycle;Signal;HPM_P1;HPM_P2
2023/04/25 00:01:39;;;;;;;5.07;2.90;;;;;;;;;;5072341;28;20447;-65
2023/04/25 00:04:06;;;;;;;5.88;3.00;;;;;;;;;;5072006;28;20067;-65
2023/04/25 00:06:35;;;;;;;5.30;2.80;;;;;;;;;;5071752;28;20135;-66
2023/04/25 00:09:03;;;;;;;6.22;2.65;;;;;;;;;;5071867;28;20060;-66
2023/04/25 00:11:30;;;;;;;5.75;3.03;;;;;;;;;;5072237;28;20049;-65
2023/04/25 00:13:59;;;;;;;4.97;2.95;;;;;;;;;;5072265;28;20295;-66
2023/04/25 00:16:28;;;;;;;6.97;3.10;;;;;;;;;;5072015;28;20059;-66
2023/04/25 00:18:55;;;;;;;5.65;2.65;;;;;;;;;;5071800;28;20084;-66
2023/04/25 00:21:24;;;;;;;4.97;2.83;;;;;;;;;;5072061;28;20056;-66
2023/04/25 00:23:53;;;;;;;3.63;2.30;;;;;;;;;;5072244;28;20152;-66
2023/04/25 00:26:20;;;;;;;4.38;2.70;;;;;;;;;;5071814;28;20045;-66
2023/04/25 00:28:47;;;;;;;5.38;2.72;;;;;;;;;;5071536;28;20553;-66
2023/04/25 00:31:14;;;;;;;4.43;2.50;;;;;;;;;;5071458;28;20056;-65
2023/04/25 00:33:41;;;;;;;6.40;2.88;;;;;;;;;;5071318;28;20382;-66
2023/04/25 00:36:08;;;;;;;5.50;2.33;;;;;;;;;;5071505;28;20455;-66
2023/04/25 00:38:35;;;;;;;5.18;2.55;;;;;;;;;;5071527;28;20057;-66
2023/04/25 00:41:04;;;;;;;5.07;2.58;;;;;;;;;;5072929;28;20103;-66
2023/04/25 00:43:33;;;;;;;4.32;2.40;;;;;;;;;;5075552;28;20094;-66
2023/04/25 00:46:01;;;;;;;4.55;2.67;;;;;;;;;;5074223;28;20053;-66
2023/04/25 00:48:28;;;;;;;4.22;2.45;;;;;;;;;;5074135;28;20464;-66
2023/04/25 00:50:56;;;;;;;4.35;2.60;;;;;;;;;;5074973;28;20070;-67
2023/04/25 00:53:24;;;;;;;5.18;2.70;;;;;;;;;;5075270;28;20048;-67
2023/04/25 00:55:51;;;;;;;4.22;2.50;;;;;;;;;;5075623;28;20056;-67
2023/04/25 00:58:21;;;;;;;5.55;2.78;;;;;;;;;;5075434;28;20048;-67
2023/04/25 01:00:50;;;;;;;5.05;2.53;;;;;;;;;;5075038;28;20105;-67
2023/04/25 01:03:19;;;;;;;4.32;2.67;;;;;;;;;;5075166;28;20102;-67
2023/04/25 01:05:46;;;;;;;8.38;3.05;;;;;;;;;;5074915;28;20098;-67
2023/04/25 01:08:13;;;;;;;5.80;2.97;;;;;;;;;;5075302;28;20555;-67
2023/04/25 01:10:40;;;;;;;5.68;2.90;;;;;;;;;;5074821;28;20098;-67
2023/04/25 01:13:07;;;;;;;6.00;3.60;;;;;;;;;;5074981;28;20110;-67
2023/04/25 01:15:36;;;;;;;6.47;3.88;;;;;;;;;;5075381;28;20053;-68
2023/04/25 01:18:03;;;;;;;6.55;4.22;;;;;;;;;;5074879;28;20045;-67
2023/04/25 01:20:33;;;;;;;7.18;4.40;;;;;;;;;;5074799;28;20048;-67
2023/04/25 01:23:03;;;;;;;7.53;4.22;;;;;;;;;;5074895;28;20057;-67
2023/04/25 01:25:30;;;;;;;6.40;4.15;;;;;;;;;;5075152;28;20565;-67
2023/04/25 01:27:58;;;;;;;8.50;4.88;;;;;;;;;;5075224;28;20052;-67
2023/04/25 01:30:26;;;;;;;7.57;4.32;;;;;;;;;;5074595;28;20609;-67
2023/04/25 01:32:55;;;;;;;7.32;4.15;;;;;;;;;;5074450;28;20110;-66
2023/04/25 01:35:23;;;;;;;7.30;3.45;;;;;;;;;;5074719;28;20049;-66
2023/04/25 01:37:50;;;;;;;7.95;3.88;;;;;;;;;;5075235;28;20048;-66
2023/04/25 01:40:18;;;;;;;4.97;3.17;;;;;;;;;;5075186;28;20108;-67
2023/04/25 01:42:46;;;;;;;7.65;4.03;;;;;;;;;;5074304;28;20509;-67
2023/04/25 01:45:13;;;;;;;6.15;3.42;;;;;;;;;;5074778;28;20482;-67
2023/04/25 01:47:42;;;;;;;5.75;3.35;;;;;;;;;;5074348;28;20052;-67
2023/04/25 01:50:10;;;;;;;5.72;3.40;;;;;;;;;;5074595;28;20456;-67
2023/04/25 01:52:37;;;;;;;5.80;3.40;;;;;;;;;;5073446;28;20445;-68
2023/04/25 01:55:07;;;;;;;5.25;3.63;;;;;;;;;;5074265;28;20136;-67
2023/04/25 01:57:35;;;;;;;5.53;3.30;;;;;;;;;;5074204;28;20451;-68
2023/04/25 02:00:04;;;;;;;6.65;3.90;;;;;;;;;;5073619;28;20068;-67
2023/04/25 02:02:31;;;;;;;6.90;4.60;;;;;;;;;;5074156;28;20099;-67
2023/04/25 02:04:58;;;;;;;7.20;4.53;;;;;;;;;;5074001;28;20102;-67
2023/04/25 02:07:25;;;;;;;7.65;4.28;;;;;;;;;;5073929;28;20574;-67
2023/04/25 02:09:51;;;;;;;8.50;4.35;;;;;;;;;;5073806;28;20094;-67
2023/04/25 02:12:18;;;;;;;9.85;4.20;;;;;;;;;;5074107;28;20067;-67
2023/04/25 02:14:46;;;;;;;6.28;3.83;;;;;;;;;;5073772;28;20571;-67
2023/04/25 02:17:13;;;;;;;5.82;4.00;;;;;;;;;;5073692;28;20059;-68
2023/04/25 02:19:40;;;;;;;6.18;4.10;;;;;;;;;;5073405;28;20106;-67
2023/04/25 02:22:07;;;;;;;6.55;4.10;;;;;;;;;;5073705;28;20048;-68
2023/04/25 02:24:34;;;;;;;6.75;4.05;;;;;;;;;;5073069;28;20106;-67
2023/04/25 02:27:01;;;;;;;7.28;3.58;;;;;;;;;;5073248;28;20072;-67
2023/04/25 02:29:28;;;;;;;6.97;3.38;;;;;;;;;;5072857;28;20140;-67
2023/04/25 02:31:56;;;;;;;6.88;3.63;;;;;;;;;;5073002;28;20102;-67
2023/04/25 02:34:23;;;;;;;5.43;3.90;;;;;;;;;;5073285;28;20719;-67
2023/04/25 02:36:50;;;;;;;5.65;3.53;;;;;;;;;;5072351;28;20098;-68
2023/04/25 02:39:17;;;;;;;8.02;4.10;;;;;;;;;;5072815;28;20048;-68
2023/04/25 02:41:44;;;;;;;6.90;3.58;;;;;;;;;;5072751;28;20052;-67
2023/04/25 02:44:10;;;;;;;5.63;3.22;;;;;;;;;;5072698;28;20147;-67
2023/04/25 02:46:37;;;;;;;7.45;4.18;;;;;;;;;;5072547;28;20053;-67
2023/04/25 02:49:06;;;;;;;6.72;3.63;;;;;;;;;;5072499;28;20467;-68
2023/04/25 02:51:32;;;;;;;5.70;3.17;;;;;;;;;;5072391;28;20519;-67
2023/04/25 02:53:59;;;;;;;7.43;3.25;;;;;;;;;;5072569;28;20052;-67
2023/04/25 02:56:26;;;;;;;5.63;3.05;;;;;;;;;;5072353;28;20119;-67
2023/04/25 02:58:54;;;;;;;6.95;2.90;;;;;;;;;;5072416;28;20045;-67
2023/04/25 03:01:20;;;;;;;4.43;2.40;;;;;;;;;;5072527;28;20052;-67
2023/04/25 03:03:47;;;;;;;5.70;3.00;;;;;;;;;;5072117;28;20052;-67
2023/04/25 03:06:16;;;;;;;6.43;2.90;;;;;;;;;;5072467;28;20052;-67
2023/04/25 03:08:43;;;;;;;6.00;3.35;;;;;;;;;;5072212;28;20051;-68
2023/04/25 03:11:10;;;;;;;4.97;3.33;;;;;;;;;;5072002;28;20143;-67
2023/04/25 03:13:37;;;;;;;6.45;3.08;;;;;;;;;;5072196;28;20048;-67
2023/04/25 03:16:04;;;;;;;5.43;2.60;;;;;;;;;;5072137;28;20456;-67
2023/04/25 03:18:31;;;;;;;5.30;2.97;;;;;;;;;;5072165;28;20452;-67
2023/04/25 03:20:57;;;;;;;7.28;2.90;;;;;;;;;;5071722;28;20106;-67
2023/04/25 03:23:25;;;;;;;6.05;2.85;;;;;;;;;;5072102;28;20048;-67
2023/04/25 03:25:52;;;;;;;6.28;2.70;;;;;;;;;;5072321;28;20447;-67
2023/04/25 03:28:19;;;;;;;5.53;2.55;;;;;;;;;;5072247;28;20048;-68
2023/04/25 03:30:46;;;;;;;5.20;2.60;;;;;;;;;;5072115;28;20056;-67
2023/04/25 03:33:13;;;;;;;5.45;2.65;;;;;;;;;;5072249;28;20091;-67
2023/04/25 03:35:40;;;;;;;5.57;2.42;;;;;;;;;;5088451;28;20398;-68
2023/04/25 03:38:06;;;;;;;5.75;2.42;;;;;;;;;;5092026;28;20455;-68
2023/04/25 03:40:35;;;;;;;4.13;2.20;;;;;;;;;;5091572;28;20052;-67
2023/04/25 03:43:01;;;;;;;3.63;2.42;;;;;;;;;;5092429;28;20059;-67
2023/04/25 03:45:28;;;;;;;8.43;3.03;;;;;;;;;;5092474;28;20102;-67
2023/04/25 03:47:55;;;;;;;4.85;2.60;;;;;;;;;;5092139;28;20051;-67
2023/04/25 03:50:22;;;;;;;5.72;2.80;;;;;;;;;;5091741;28;20113;-67
2023/04/25 03:52:49;;;;;;;5.10;2.55;;;;;;;;;;5091894;28;20048;-67
2023/04/25 03:55:16;;;;;;;4.68;2.20;;;;;;;;;;5092518;28;20149;-67
2023/04/25 03:57:44;;;;;;;3.88;2.35;;;;;;;;;;5092082;28;20093;-67
2023/04/25 04:00:12;;;;;;;5.45;2.42;;;;;;;;;;5092197;28;20048;-67
2023/04/25 04:02:39;;;;;;;5.18;2.17;;;;;;;;;;5077878;28;20060;-67
2023/04/25 04:05:06;;;;;;;5.10;2.28;;;;;;;;;;5071567;28;20045;-67
2023/04/25 04:07:36;;;;;;;5.25;2.63;;;;;;;;;;5072247;28;20056;-67
2023/04/25 04:10:05;;;;;;;6.07;2.72;;;;;;;;;;5071586;28;20052;-67
2023/04/25 04:12:32;;;;;;;6.13;2.92;;;;;;;;;;5071775;28;20055;-67
2023/04/25 04:15:00;;;;;;;4.30;2.70;;;;;;;;;;5071532;28;20489;-67
2023/04/25 04:17:26;;;;;;;5.60;2.83;;;;;;;;;;5075590;28;20055;-67
2023/04/25 04:19:53;;;;;;;6.15;3.10;;;;;;;;;;5075057;28;20049;-67
2023/04/25 04:22:20;;;;;;;5.25;2.50;;;;;;;;;;5075165;28;20044;-67
2023/04/25 04:24:47;;;;;;;4.90;2.42;;;;;;;;;;5075597;28;20110;-67
2023/04/25 04:27:14;;;;;;;5.55;2.75;;;;;;;;;;5075212;28;20105;-67
2023/04/25 04:29:41;;;;;;;5.60;2.40;;;;;;;;;;5075474;28;20464;-67
2023/04/25 04:32:09;;;;;;;4.78;2.10;;;;;;;;;;5075026;28;20052;-67
2023/04/25 04:34:37;;;;;;;3.75;1.80;;;;;;;;;;5075160;28;20475;-67
2023/04/25 04:37:04;;;;;;;4.93;1.80;;;;;;;;;;5075402;28;20056;-67
2023/04/25 04:39:30;;;;;;;3.78;1.70;;;;;;;;;;5074803;28;20048;-67
2023/04/25 04:41:57;;;;;;;4.43;2.40;;;;;;;;;;5075120;28;20083;-67
2023/04/25 04:44:24;;;;;;;4.13;2.10;;;;;;;;;;5074884;28;20497;-67
2023/04/25 04:46:51;;;;;;;3.65;1.95;;;;;;;;;;5075085;28;20064;-67
2023/04/25 04:49:19;;;;;;;5.57;2.45;;;;;;;;;;5074552;28;20048;-67
2023/04/25 04:51:46;;;;;;;3.60;1.90;;;;;;;;;;5075133;28;20057;-68
2023/04/25 04:54:13;;;;;;;4.93;2.00;;;;;;;;;;5075328;28;20180;-67
2023/04/25 04:56:41;;;;;;;5.28;2.10;;;;;;;;;;5074956;28;20102;-67
2023/04/25 04:59:08;;;;;;;4.38;2.22;;;;;;;;;;5075050;28;20060;-67
2023/04/25 05:01:36;;;;;;;5.55;2.40;;;;;;;;;;5075335;28;20045;-67
2023/04/25 05:04:03;;;;;;;5.38;2.38;;;;;;;;;;5075214;28;20070;-67
2023/04/25 05:06:31;;;;;;;6.28;2.72;;;;;;;;;;5074929;28;20498;-67
2023/04/25 05:08:59;;;;;;;6.22;2.75;;;;;;;;;;5074881;28;20060;-67
2023/04/25 05:11:26;;;;;;;6.28;2.70;;;;;;;;;;5075482;28;20048;-68
2023/04/25 05:13:54;;;;;;;7.75;3.80;;;;;;;;;;5074943;28;20067;-67
2023/04/25 05:16:21;;;;;;;8.43;3.20;;;;;;;;;;5084939;22;20604;-67
2023/04/25 05:18:48;;;;;;;7.32;3.65;;;;;;;;;;5074953;28;20049;-67
2023/04/25 05:21:15;;;;;;;5.95;3.03;;;;;;;;;;5074356;28;20466;-69
2023/04/25 05:23:43;;;;;;;4.80;2.50;;;;;;;;;;5074558;28;20147;-68
2023/04/25 05:26:13;;;;;;;4.95;2.38;;;;;;;;;;5074685;28;20056;-69
2023/04/25 05:28:40;;;;;;;5.65;2.70;;;;;;;;;;5075003;28;20052;-71
2023/04/25 05:31:08;;;;;;;6.28;3.05;;;;;;;;;;5074234;28;20143;-68
2023/04/25 05:33:34;;;;;;;4.65;2.65;;;;;;;;;;5074751;28;20048;-69
2023/04/25 05:36:01;;;;;;;6.95;3.10;;;;;;;;;;5074245;28;20489;-68
2023/04/25 05:38:28;;;;;;;6.95;2.90;;;;;;;;;;5074465;28;20055;-69
2023/04/25 05:40:56;;;;;;;6.22;2.95;;;;;;;;;;5074161;28;20060;-68
2023/04/25 05:43:23;;;;;;;8.55;3.22;;;;;;;;;;5073991;28;20049;-68
2023/04/25 05:45:50;;;;;;;4.75;2.45;;;;;;;;;;5074449;28;20060;-68
2023/04/25 05:48:17;;;;;;;6.45;3.20;;;;;;;;;;5073893;28;20052;-67
2023/04/25 05:50:44;;;;;;;6.10;3.00;;;;;;;;;;5073913;28;20048;-69
2023/04/25 05:53:11;;;;;;;5.32;2.92;;;;;;;;;;5074497;28;20087;-69
2023/04/25 05:55:37;;;;;;;6.70;3.00;;;;;;;;;;5074694;28;20082;-68
2023/04/25 05:58:06;;;;;;;4.88;2.83;;;;;;;;;;5074892;28;20048;-68
2023/04/25 06:00:32;;;;;;;6.53;3.25;;;;;;;;;;5073770;28;20048;-68
2023/04/25 06:02:59;;;;;;;8.27;3.30;;;;;;;;;;5074426;28;20048;-67
2023/04/25 06:05:26;;;;;;;5.90;2.78;;;;;;;;;;5074499;28;20055;-69
2023/04/25 06:07:53;;;;;;;8.25;2.40;;;;;;;;;;5075669;28;20057;-71
2023/04/25 06:10:20;;;;;;;6.55;3.10;;;;;;;;;;5075349;28;20392;-68
2023/04/25 06:12:47;;;;;;;5.65;2.90;;;;;;;;;;5074675;28;20045;-69
2023/04/25 06:15:16;;;;;;;6.72;3.00;;;;;;;;;;5074386;28;20056;-68
2023/04/25 06:17:43;;;;;;;6.80;3.13;;;;;;;;;;5075057;28;20146;-69
2023/04/25 06:20:10;;;;;;;5.03;2.60;;;;;;;;;;5073734;28;20044;-69
2023/04/25 06:22:37;;;;;;;7.05;2.90;;;;;;;;;;5073329;28;20622;-69
2023/04/25 06:25:06;;;;;;;7.53;2.72;;;;;;;;;;5073806;28;20052;-67
2023/04/25 06:27:33;;;;;;;6.13;2.00;;;;;;;;;;5073515;28;20049;-70
2023/04/25 06:30:00;;;;;;;4.45;1.95;;;;;;;;;;5073297;28;20060;-67
2023/04/25 06:32:29;;;;;;;4.78;1.95;;;;;;;;;;5073469;28;20054;-67
2023/04/25 06:34:56;;;;;;;5.60;2.40;;;;;;;;;;5073660;28;20429;-68
2023/04/25 06:37:23;;;;;;;3.78;2.20;;;;;;;;;;5073357;28;20563;-67
2023/04/25 06:39:50;;;;;;;4.60;2.50;;;;;;;;;;5073310;28;20051;-68
2023/04/25 06:42:17;;;;;;;4.70;2.17;;;;;;;;;;5072119;28;20056;-67
2023/04/25 06:44:43;;;;;;;5.80;2.30;;;;;;;;;;5072754;28;20056;-68
2023/04/25 06:47:10;;;;;;;6.55;2.40;;;;;;;;;;5073596;28;20048;-68
2023/04/25 06:49:38;;;;;;;5.10;2.67;;;;;;;;;;5073073;28;20048;-68
2023/04/25 06:52:05;;;;;;;5.85;2.40;;;;;;;;;;5073114;28;20067;-68
2023/04/25 06:54:32;;;;;;;6.85;3.00;;;;;;;;;;5072469;28;20052;-68
2023/04/25 06:57:00;;;;;;;5.43;2.85;;;;;;;;;;5072927;28;20413;-68
2023/04/25 06:59:27;;;;;;;6.03;2.78;;;;;;;;;;5073428;28;20523;-69
2023/04/25 07:01:54;;;;;;;5.13;2.83;;;;;;;;;;5073147;28;20053;-68
2023/04/25 07:04:21;;;;;;;5.93;2.88;;;;;;;;;;5072567;28;20049;-68
2023/04/25 07:06:49;;;;;;;8.10;3.63;;;;;;;;;;5073212;28;20049;-66
2023/04/25 07:09:16;;;;;;;6.47;2.90;;;;;;;;;;5072913;28;20512;-67
2023/04/25 07:11:43;;;;;;;5.65;3.08;;;;;;;;;;5072775;28;20053;-68
2023/04/25 07:14:10;;;;;;;5.15;3.28;;;;;;;;;;5072105;28;20101;-68
2023/04/25 07:16:36;;;;;;;5.18;2.88;;;;;;;;;;5072707;28;20497;-68
2023/04/25 07:19:03;;;;;;;5.35;2.80;;;;;;;;;;5072354;28;20048;-68
2023/04/25 07:21:32;;;;;;;5.53;3.03;;;;;;;;;;5072855;28;20122;-67
2023/04/25 07:24:00;;;;;;;6.75;3.63;;;;;;;;;;5070008;28;20079;-67
2023/04/25 07:26:27;;;;;;;5.97;2.65;;;;;;;;;;5071216;28;20352;-68
2023/04/25 07:28:54;;;;;;;5.40;2.75;;;;;;;;;;5071019;28;20467;-69
2023/04/25 07:31:21;;;;;;;5.28;2.85;;;;;;;;;;5069994;28;20045;-69
2023/04/25 07:33:48;;;;;;;5.15;2.45;;;;;;;;;;5070625;28;20071;-69
2023/04/25 07:36:15;;;;;;;5.10;2.40;;;;;;;;;;5071093;28;20131;-69
2023/04/25 07:38:42;;;;;;;5.85;2.50;;;;;;;;;;5070603;28;20468;-69
2023/04/25 07:41:10;;;;;;;5.95;2.50;;;;;;;;;;5070299;28;20090;-69
2023/04/25 07:43:36;;;;;;;6.15;2.42;;;;;;;;;;5071347;28;20052;-69
2023/04/25 07:46:03;;;;;;;4.80;2.30;;;;;;;;;;5070195;28;20053;-68
2023/04/25 07:48:30;;;;;;;5.05;2.85;;;;;;;;;;5070121;28;20110;-69
2023/04/25 07:50:57;;;;;;;7.10;2.67;;;;;;;;;;5069242;28;20106;-73
2023/04/25 07:53:23;;;;;;;5.97;3.80;;;;;;;;;;5070282;28;20060;-71
2023/04/25 07:55:51;;;;;;;5.75;2.75;;;;;;;;;;5070552;28;20041;-72
2023/04/25 07:58:21;;;;;;;6.97;3.00;;;;;;;;;;5070437;28;20117;-71
2023/04/25 08:00:48;;;;;;;7.32;3.45;;;;;;;;;;5070489;28;20052;-73
2023/04/25 08:03:15;;;;;;;7.47;3.60;;;;;;;;;;5070524;28;20056;-71
2023/04/25 08:05:42;;;;;;;36.80;6.40;;;;;;;;;;5071646;28;20048;-71
2023/04/25 08:08:11;;;;;;;14.38;5.28;;;;;;;;;;5071264;28;20055;-71
2023/04/25 08:10:37;;;;;;;12.13;4.20;;;;;;;;;;5070480;28;20053;-70
2023/04/25 08:13:04;;;;;;;12.30;4.30;;;;;;;;;;5070231;28;20056;-70
2023/04/25 08:15:32;;;;;;;8.15;3.35;;;;;;;;;;5069875;28;20315;-70
2023/04/25 08:18:01;;;;;;;7.18;3.75;;;;;;;;;;5072308;28;20403;-70
2023/04/25 08:20:28;;;;;;;6.40;3.30;;;;;;;;;;5070549;28;20083;-71
2023/04/25 08:22:54;;;;;;;5.88;3.38;;;;;;;;;;5070106;28;20060;-71
2023/04/25 08:25:21;;;;;;;5.80;2.83;;;;;;;;;;5069754;28;20071;-70
2023/04/25 08:27:48;;;;;;;6.85;3.35;;;;;;;;;;5069388;28;20071;-71
2023/04/25 08:30:15;;;;;;;10.70;3.78;;;;;;;;;;5070573;28;20106;-70
2023/04/25 08:32:43;;;;;;;5.28;3.03;;;;;;;;;;5070094;28;20110;-71
2023/04/25 08:35:11;;;;;;;4.25;2.60;;;;;;;;;;5070009;28;20041;-70
2023/04/25 08:37:38;;;;;;;6.70;3.13;;;;;;;;;;5071063;28;20053;-71
2023/04/25 08:40:06;;;;;;;5.25;2.33;;;;;;;;;;5070851;28;20491;-71
2023/04/25 08:42:35;;;;;;;3.50;2.08;;;;;;;;;;5070811;28;20129;-71
2023/04/25 08:45:02;;;;;;;5.05;2.63;;;;;;;;;;5070322;28;20501;-71
2023/04/25 08:47:34;;;;;;;4.50;2.15;;;;;;;;;;5069994;28;20110;-71
2023/04/25 08:50:03;;;;;;;5.05;2.20;;;;;;;;;;5070844;28;20103;-72
2023/04/25 08:52:36;;;;;;;5.82;2.33;;;;;;;;;;5070424;28;20057;-71
2023/04/25 08:55:04;;;;;;;5.43;2.30;;;;;;;;;;5070042;28;20052;-71
2023/04/25 08:57:32;;;;;;;4.93;2.20;;;;;;;;;;5069793;28;20048;-71
2023/04/25 09:00:01;;;;;;;5.03;2.20;;;;;;;;;;5070164;28;20049;-72
2023/04/25 09:02:28;;;;;;;4.65;2.35;;;;;;;;;;5072249;28;20041;-70
2023/04/25 09:04:55;;;;;;;5.75;2.20;;;;;;;;;;5073669;28;20052;-71
2023/04/25 09:07:25;;;;;;;4.32;2.10;;;;;;;;;;5073556;28;20084;-71
2023/04/25 09:09:52;;;;;;;3.95;2.20;;;;;;;;;;5073796;28;20114;-70
2023/04/25 09:12:19;;;;;;;6.10;2.50;;;;;;;;;;5073432;28;20048;-70
2023/04/25 09:15:03;;;;;;;4.25;2.25;;;;;;;;;;5072914;28;20106;-70
2023/04/25 09:17:30;;;;;;;5.03;2.10;;;;;;;;;;5073141;28;20109;-71
2023/04/25 09:20:07;;;;;;;4.75;2.03;;;;;;;;;;5073394;28;20044;-71
2023/04/25 09:22:35;;;;;;;6.78;1.95;;;;;;;;;;5073587;28;20159;-70
2023/04/25 09:25:04;;;;;;;4.15;2.05;;;;;;;;;;5074869;28;20110;-71
2023/04/25 09:27:32;;;;;;;3.92;2.13;;;;;;;;;;5074072;28;20127;-70
2023/04/25 09:30:00;;;;;;;4.22;2.15;;;;;;;;;;5074890;28;20075;-71
2023/04/25 09:32:27;;;;;;;4.57;2.22;;;;;;;;;;5074595;28;20531;-70
2023/04/25 09:34:55;;;;;;;3.80;1.85;;;;;;;;;;5072801;28;20056;-71
2023/04/25 09:37:23;;;;;;;5.25;2.20;;;;;;;;;;5074032;28;20490;-71
2023/04/25 09:39:54;;;;;;;4.25;2.30;;;;;;;;;;5074488;28;20048;-71
2023/04/25 09:42:24;;;;;;;4.18;2.22;;;;;;;;;;5075232;28;20130;-71
2023/04/25 09:44:53;;;;;;;4.22;2.25;;;;;;;;;;5074231;28;20143;-71
2023/04/25 09:47:22;;;;;;;4.25;2.00;;;;;;;;;;5073516;28;20110;-70
2023/04/25 09:49:49;;;;;;;4.10;2.45;;;;;;;;;;5072759;28;20067;-71
2023/04/25 09:52:17;;;;;;;3.63;2.00;;;;;;;;;;5073573;28;20059;-71
2023/04/25 09:54:45;;;;;;;4.75;2.20;;;;;;;;;;5072653;28;20075;-71
2023/04/25 09:57:15;;;;;;;4.38;2.28;;;;;;;;;;5072242;28;20056;-72
2023/04/25 09:59:45;;;;;;;4.50;2.20;;;;;;;;;;5071961;28;20053;-72
2023/04/25 10:02:13;;;;;;;3.72;1.92;;;;;;;;;;5063198;28;20083;-72
2023/04/25 10:04:41;;;;;;;5.07;2.38;;;;;;;;;;5052396;28;20048;-70
2023/04/25 10:07:09;;;;;;;5.63;2.10;;;;;;;;;;5052045;28;20079;-71
2023/04/25 10:09:39;;;;;;;4.47;2.28;;;;;;;;;;5051759;28;20064;-71
2023/04/25 10:12:07;;;;;;;4.00;2.00;;;;;;;;;;5052102;28;20448;-71
2023/04/25 10:14:35;;;;;;;4.78;2.28;;;;;;;;;;5050805;28;20301;-72
2023/04/25 10:17:02;;;;;;;5.70;2.50;;;;;;;;;;5051872;28;20055;-71
2023/04/25 10:19:30;;;;;;;4.35;1.88;;;;;;;;;;5052364;28;20049;-72
2023/04/25 10:22:08;;;;;;;3.90;2.17;;;;;;;;;;5052820;28;20047;-70
2023/04/25 10:24:36;;;;;;;4.20;2.03;;;;;;;;;;5052842;28;20052;-70
2023/04/25 10:27:04;;;;;;;4.78;2.00;;;;;;;;;;5052062;28;20423;-71
2023/04/25 10:29:30;;;;;;;5.43;1.70;;;;;;;;;;5052411;28;20061;-71
2023/04/25 10:31:59;;;;;;;4.82;1.88;;;;;;;;;;5052417;28;20052;-71
2023/04/25 10:34:39;;;;;;;3.78;2.03;;;;;;;;;;5052135;28;20044;-70
2023/04/25 10:37:09;;;;;;;6.28;2.45;;;;;;;;;;5051851;28;20135;-69
2023/04/25 10:39:36;;;;;;;5.60;2.00;;;;;;;;;;5051261;28;20048;-70
2023/04/25 10:42:03;;;;;;;4.65;2.00;;;;;;;;;;5052644;28;20095;-71
2023/04/25 10:44:31;;;;;;;4.82;2.50;;;;;;;;;;5052043;28;20417;-71
2023/04/25 10:47:01;;;;;;;4.45;2.08;;;;;;;;;;5052863;28;20049;-71
2023/04/25 10:49:35;;;;;;;4.10;1.88;;;;;;;;;;5050942;28;20570;-71
2023/04/25 10:52:26;;;;;;;4.35;1.92;;;;;;;;;;5052562;28;20057;-71
2023/04/25 10:54:54;;;;;;;3.72;1.90;;;;;;;;;;5052111;28;20052;-71
2023/04/25 10:57:29;;;;;;;4.60;2.08;;;;;;;;;;5053029;28;20052;-71
2023/04/25 11:00:00;;;;;;;6.95;2.00;;;;;;;;;;5051680;28;20049;-71
2023/04/25 11:02:29;;;;;;;3.80;2.08;;;;;;;;;;5063126;28;20049;-71
2023/04/25 11:04:56;;;;;;;4.43;2.25;;;;;;;;;;5071800;28;20122;-71
2023/04/25 11:07:34;;;;;;;4.38;1.95;;;;;;;;;;5070750;28;20048;-71
2023/04/25 11:10:03;;;;;;;3.40;1.80;;;;;;;;;;5071710;28;20436;-71
2023/04/25 11:12:32;;;;;;;5.32;2.45;;;;;;;;;;5072104;28;20139;-71
2023/04/25 11:15:07;;;;;;;3.72;2.08;;;;;;;;;;5071968;28;20473;-71
2023/04/25 11:17:35;;;;;;;4.15;2.00;;;;;;;;;;5071556;28;20490;-70
2023/04/25 11:20:07;;;;;;;4.88;2.03;;;;;;;;;;5086919;22;20041;-71
2023/04/25 11:22:35;;;;;;;6.38;2.00;;;;;;;;;;5051171;28;20103;-71
2023/04/25 11:25:06;;;;;;;4.32;1.70;;;;;;;;;;5050847;28;20053;-70
2023/04/25 11:27:34;;;;;;;6.88;1.70;;;;;;;;;;5050750;28;20102;-70
2023/04/25 11:30:11;;;;;;;4.20;2.10;;;;;;;;;;5050679;28;20510;-70
2023/04/25 11:32:42;;;;;;;4.07;1.75;;;;;;;;;;5050894;28;20553;-69
2023/04/25 11:35:10;;;;;;;4.90;2.20;;;;;;;;;;5050848;28;20102;-67
2023/04/25 11:37:37;;;;;;;3.97;1.70;;;;;;;;;;5050823;28;20059;-65
2023/04/25 11:40:08;;;;;;;3.53;1.85;;;;;;;;;;5051859;28;20075;-70
2023/04/25 11:42:37;;;;;;;4.57;1.95;;;;;;;;;;5050538;28;20060;-70
2023/04/25 11:45:06;;;;;;;6.40;3.03;;;;;;;;;;5050879;28;20094;-70
2023/04/25 11:47:34;;;;;;;4.82;1.98;;;;;;;;;;5050685;28;20056;-70
2023/04/25 11:50:04;;;;;;;5.88;3.28;;;;;;;;;;5050768;28;20437;-69
2023/04/25 11:52:43;;;;;;;5.18;2.30;;;;;;;;;;5050681;28;20049;-71
2023/04/25 11:55:13;;;;;;;5.97;2.10;;;;;;;;;;5050438;28;20045;-69
2023/04/25 11:57:41;;;;;;;8.85;2.42;;;;;;;;;;5050489;28;20502;-69
2023/04/25 12:00:12;;;;;;;5.90;2.33;;;;;;;;;;5050287;28;20056;-69
2023/04/25 12:02:41;;;;;;;5.03;2.55;;;;;;;;;;5050662;28;20075;-69
2023/04/25 12:05:10;;;;;;;2.97;1.40;;;;;;;;;;5050772;28;20160;-69
2023/04/25 12:07:38;;;;;;;3.15;1.50;;;;;;;;;;5050357;28;20254;-69
2023/04/25 12:10:09;;;;;;;10.68;4.28;;;;;;;;;;5050047;28;20056;-70
2023/04/25 12:12:36;;;;;;;4.13;2.05;;;;;;;;;;5050482;28;20048;-70
2023/04/25 12:15:15;;;;;;;2.85;1.55;;;;;;;;;;5050332;28;20437;-70
2023/04/25 12:17:43;;;;;;;3.60;2.00;;;;;;;;;;5050399;28;20048;-70
2023/04/25 12:20:14;;;;;;;4.22;1.58;;;;;;;;;;5049891;28;20102;-69
2023/04/25 12:22:44;;;;;;;3.05;1.45;;;;;;;;;;5050969;28;20052;-69
2023/04/25 12:25:12;;;;;;;3.08;1.42;;;;;;;;;;5050832;28;20057;-69
2023/04/25 12:27:39;;;;;;;5.20;1.70;;;;;;;;;;5050643;28;20064;-69
2023/04/25 12:30:08;;;;;;;2.65;1.30;;;;;;;;;;5050349;28;20537;-69
2023/04/25 12:32:35;;;;;;;3.42;1.40;;;;;;;;;;5049974;28;20049;-69
2023/04/25 12:35:02;;;;;;;2.75;1.45;;;;;;;;;;5050615;28;20071;-69
2023/04/25 12:37:31;;;;;;;3.45;1.48;;;;;;;;;;5052369;28;20049;-69
2023/04/25 12:39:58;;;;;;;3.00;1.38;;;;;;;;;;5053299;28;20091;-69
2023/04/25 12:42:25;;;;;;;3.63;1.67;;;;;;;;;;5053484;28;20048;-70
2023/04/25 12:44:51;;;;;;;3.72;1.52;;;;;;;;;;5053867;28;20110;-70
2023/04/25 12:47:18;;;;;;;5.00;1.88;;;;;;;;;;5053258;28;20083;-69
2023/04/25 12:49:45;;;;;;;3.88;1.52;;;;;;;;;;5053401;28;20401;-70
2023/04/25 12:52:12;;;;;;;4.10;1.65;;;;;;;;;;5053428;28;20416;-70
2023/04/25 12:54:40;;;;;;;3.10;1.77;;;;;;;;;;5053449;28;20424;-69
2023/04/25 12:57:07;;;;;;;3.20;1.70;;;;;;;;;;5053501;28;20063;-69
2023/04/25 12:59:34;;;;;;;5.00;2.00;;;;;;;;;;5053423;28;20048;-69
2023/04/25 13:02:01;;;;;;;3.45;1.65;;;;;;;;;;5045220;28;20342;-68
2023/04/25 13:04:27;;;;;;;4.15;2.00;;;;;;;;;;5033762;28;20057;-69
2023/04/25 13:06:56;;;;;;;3.05;1.50;;;;;;;;;;5033610;28;20510;-68
2023/04/25 13:09:22;;;;;;;3.17;1.50;;;;;;;;;;5033488;28;20128;-69
2023/04/25 13:11:51;;;;;;;2.20;1.20;;;;;;;;;;5033300;28;20053;-68
2023/04/25 13:14:17;;;;;;;3.65;1.30;;;;;;;;;;5033298;28;20472;-68
2023/04/25 13:16:45;;;;;;;3.17;1.45;;;;;;;;;;5033588;28;20053;-69
2023/04/25 13:19:12;;;;;;;2.33;1.30;;;;;;;;;;5033071;28;20056;-68
2023/04/25 13:21:39;;;;;;;3.72;1.63;;;;;;;;;;5033114;28;20148;-69
2023/04/25 13:24:06;;;;;;;3.78;1.75;;;;;;;;;;5038072;28;20102;-69
2023/04/25 13:26:33;;;;;;;2.38;1.35;;;;;;;;;;5053339;28;20136;-69
2023/04/25 13:29:03;;;;;;;4.95;1.67;;;;;;;;;;5053607;28;20087;-69
2023/04/25 13:31:30;;;;;;;3.45;1.63;;;;;;;;;;5053555;28;20664;-69
2023/04/25 13:33:57;;;;;;;3.22;1.50;;;;;;;;;;5052771;28;20053;-69
2023/04/25 13:36:24;;;;;;;3.25;1.77;;;;;;;;;;5052908;28;20118;-69
2023/04/25 13:38:50;;;;;;;3.15;1.23;;;;;;;;;;5052815;28;20052;-70
2023/04/25 13:41:18;;;;;;;2.00;1.10;;;;;;;;;;5052629;28;20555;-69
2023/04/25 13:43:47;;;;;;;2.97;1.20;;;;;;;;;;5053500;28;20060;-70
2023/04/25 13:46:16;;;;;;;2.58;1.10;;;;;;;;;;5052905;28;20418;-69
2023/04/25 13:48:46;;;;;;;2.10;1.00;;;;;;;;;;5051010;28;20411;-70
2023/04/25 13:51:15;;;;;;;2.50;0.93;;;;;;;;;;5052822;28;20064;-69
2023/04/25 13:53:42;;;;;;;5.20;1.77;;;;;;;;;;5052738;28;20282;-69
2023/04/25 13:56:10;;;;;;;2.10;0.90;;;;;;;;;;5052637;28;20049;-70
2023/04/25 13:58:37;;;;;;;5.18;1.38;;;;;;;;;;5053485;28;20049;-70
2023/04/25 14:01:04;;;;;;;3.35;1.50;;;;;;;;;;5052611;28;20440;-69
2023/04/25 14:03:33;;;;;;;3.08;1.40;;;;;;;;;;5052572;28;20055;-69
2023/04/25 14:06:00;;;;;;;6.78;2.60;;;;;;;;;;5052339;28;20548;-70
2023/04/25 14:08:28;;;;;;;2.92;1.50;;;;;;;;;;5052909;28;20056;-69
2023/04/25 14:10:55;;;;;;;4.72;1.77;;;;;;;;;;5051882;28;20053;-69
2023/04/25 14:13:23;;;;;;;3.75;1.65;;;;;;;;;;5052692;28;20049;-70
2023/04/25 14:15:50;;;;;;;3.85;1.63;;;;;;;;;;5052279;28;20051;-69
2023/04/25 14:18:17;;;;;;;4.03;1.77;;;;;;;;;;5053100;28;20053;-69
2023/04/25 14:20:45;;;;;;;5.32;2.33;;;;;;;;;;5053246;28;20079;-68
2023/04/25 14:23:12;;;;;;;5.72;2.25;;;;;;;;;;5051836;28;20048;-71
2023/04/25 14:25:38;;;;;;;4.60;1.80;;;;;;;;;;5052613;28;20057;-70
2023/04/25 14:28:06;;;;;;;4.15;1.80;;;;;;;;;;5052419;28;20056;-69
2023/04/25 14:30:33;;;;;;;4.13;1.90;;;;;;;;;;5045808;28;20111;-69
2023/04/25 14:32:59;;;;;;;3.53;1.70;;;;;;;;;;5051217;28;20048;-69
2023/04/25 14:35:26;;;;;;;3.22;1.58;;;;;;;;;;5051815;28;20048;-69
2023/04/25 14:37:55;;;;;;;3.97;2.17;;;;;;;;;;5039188;28;20046;-70
2023/04/25 14:40:22;;;;;;;3.65;1.88;;;;;;;;;;5038275;28;20049;-68
2023/04/25 14:42:49;;;;;;;3.03;1.70;;;;;;;;;;5031894;28;20410;-69
2023/04/25 14:45:16;;;;;;;2.67;1.63;;;;;;;;;;5031489;28;20095;-69
2023/04/25 14:47:43;;;;;;;4.03;2.20;;;;;;;;;;5032040;28;20045;-69